Time;durP1;ratioP1;P1;durP2;ratioP2;P2;SDS_P1;SDS_P2;PMS_P1;PMS_P2;Temp;Humidity;BMP_temperature;BMP_pressure;BME280_temperature;BME280_humidity;BME280_pressure;Samples;Min_cycle;Max_cycle;Signal;HPM_P1;HPM_P2
2023/05/16 00:00:36;;;;;;;7.70;3.80;;;;;;;17.90;44.14;100530.52;105047;1260;64306;-49
2023/05/16 00:03:05;;;;;;;8.80;4.10;;;;;;;17.89;44.10;100532.55;105256;1263;61330;-48
2023/05/16 00:05:33;;;;;;;6.80;4.00;;;;;;;17.89;44.07;100532.42;104986;1262;64842;-48
2023/05/16 00:08:00;;;;;;;7.20;4.10;;;;;;;17.88;44.12;100527.43;104860;1260;60578;-49
2023/05/16 00:10:27;;;;;;;6.90;3.70;;;;;;;17.86;43.92;100529.30;104779;1259;60489;-49
2023/05/16 00:12:56;;;;;;;7.00;4.00;;;;;;;17.85;43.99;100530.11;108779;1258;74167;-50
2023/05/16 00:15:23;;;;;;;7.00;3.80;;;;;;;17.85;43.96;100531.05;106491;1259;61476;-49
2023/05/16 00:17:51;;;;;;;6.10;3.90;;;;;;;17.86;44.16;100533.79;106423;1259;65021;-50
2023/05/16 00:20:22;;;;;;;7.00;3.90;;;;;;;17.87;44.48;100534.97;105931;1259;60626;-50
2023/05/16 00:22:50;;;;;;;9.90;3.80;;;;;;;17.87;44.40;100533.04;105641;1258;60573;-50
2023/05/16 00:25:17;;;;;;;8.30;4.10;;;;;;;17.87;44.53;100537.27;104817;1261;66758;-53
2023/05/16 00:27:44;;;;;;;7.70;4.00;;;;;;;17.87;44.46;100536.18;108139;1258;62511;-50
2023/05/16 00:30:11;;;;;;;7.00;3.70;;;;;;;17.88;44.44;100536.07;104890;1258;64728;-50
2023/05/16 00:32:38;;;;;;;6.00;3.30;;;;;;;17.88;44.48;100539.80;105181;1260;59387;-51
2023/05/16 00:35:09;;;;;;;6.70;3.70;;;;;;;17.87;44.72;100543.05;105954;1259;60364;-49
2023/05/16 00:37:37;;;;;;;7.10;3.80;;;;;;;17.87;44.67;100543.32;108800;1257;65061;-51
2023/05/16 00:40:05;;;;;;;8.20;4.30;;;;;;;17.87;44.49;100544.13;105964;1258;61640;-50
2023/05/16 00:42:32;;;;;;;7.10;3.70;;;;;;;17.89;44.41;100543.27;105106;1262;64014;-50
2023/05/16 00:44:59;;;;;;;6.90;3.80;;;;;;;17.89;44.49;100547.16;108517;1257;59280;-49
2023/05/16 00:47:28;;;;;;;6.80;4.00;;;;;;;17.89;44.54;100547.48;106178;1259;60628;-51
2023/05/16 00:49:55;;;;;;;6.30;3.70;;;;;;;17.89;44.63;100545.23;105278;1262;66036;-49
2023/05/16 00:52:23;;;;;;;7.60;3.80;;;;;;;17.87;44.63;100543.13;105498;1259;64698;-48
2023/05/16 00:54:50;;;;;;;8.80;4.60;;;;;;;17.86;44.69;100540.77;105414;1259;65100;-49
2023/05/16 00:57:18;;;;;;;5.80;3.60;;;;;;;17.83;44.82;100535.14;105486;1259;60451;-49
2023/05/16 00:59:45;;;;;;;6.90;4.10;;;;;;;17.81;44.70;100537.30;104793;1259;60446;-49
2023/05/16 01:02:13;;;;;;;10.60;4.20;;;;;;;17.79;44.59;100538.94;106601;1258;66097;-48
2023/05/16 01:04:40;;;;;;;6.20;3.60;;;;;;;17.76;44.54;100537.84;105867;1261;61720;-50
2023/05/16 01:07:07;;;;;;;6.50;3.80;;;;;;;17.74;44.77;100535.25;105038;1259;64990;-50
2023/05/16 01:09:34;;;;;;;6.00;4.00;;;;;;;17.72;44.90;100536.02;104992;1259;60541;-49
2023/05/16 01:12:25;;;;;;;6.90;4.30;;;;;;;17.70;44.90;100533.25;104831;1259;60706;-47
2023/05/16 01:15:26;;;;;;;7.30;4.00;;;;;;;17.68;45.07;100534.31;104880;1260;66203;-50
2023/05/16 01:18:16;;;;;;;6.20;3.70;;;;;;;17.66;44.91;100531.64;108656;1258;61515;-48
2023/05/16 01:21:02;;;;;;;6.60;3.60;;;;;;;17.64;44.84;100528.61;105590;1258;65148;-49
2023/05/16 01:24:24;;;;;;;8.40;4.20;;;;;;;17.63;44.81;100528.95;108722;1259;58783;-49
2023/05/16 01:26:52;;;;;;;7.50;4.10;;;;;;;17.62;44.79;100524.13;108404;1265;58537;-48
2023/05/16 01:29:19;;;;;;;6.40;3.60;;;;;;;17.61;44.64;100523.27;108788;1261;66321;-50
2023/05/16 01:31:46;;;;;;;10.20;3.90;;;;;;;17.61;44.61;100525.23;108819;1258;62385;-50
2023/05/16 01:34:13;;;;;;;6.30;4.00;;;;;;;17.62;44.39;100526.79;108789;1258;65760;-50
2023/05/16 01:36:46;;;;;;;8.70;4.00;;;;;;;17.63;44.35;100528.95;106607;1259;60703;-49
2023/05/16 01:39:34;;;;;;;8.80;3.60;;;;;;;17.65;44.48;100526.82;105629;1260;60374;-49
2023/05/16 01:42:07;;;;;;;6.30;3.70;;;;;;;17.65;44.56;100527.89;104818;1258;65073;-49
2023/05/16 01:44:35;;;;;;;7.20;3.60;;;;;;;17.63;44.21;100524.90;104763;1259;62537;-49
2023/05/16 01:47:05;;;;;;;6.80;4.00;;;;;;;17.60;44.07;100527.12;104671;1262;64831;-48
2023/05/16 01:49:38;;;;;;;5.70;3.60;;;;;;;17.57;44.14;100525.89;104954;1263;60337;-49
2023/05/16 01:52:15;;;;;;;8.00;4.40;;;;;;;17.52;43.94;100526.42;104808;1260;60460;-50
2023/05/16 01:54:45;;;;;;;8.80;3.50;;;;;;;17.48;43.85;100523.15;104944;1260;65105;-50
2023/05/16 01:57:36;;;;;;;7.80;4.00;;;;;;;17.43;44.05;100521.55;104945;1258;62435;-50
2023/05/16 02:00:08;;;;;;;8.20;3.50;;;;;;;17.37;43.87;100517.62;104689;1259;65035;-50
2023/05/16 02:02:40;;;;;;;6.60;4.10;;;;;;;17.32;43.88;100520.06;105847;1259;60498;-48
2023/05/16 02:05:08;;;;;;;6.00;3.50;;;;;;;17.28;43.94;100516.05;104793;1262;60674;-49
2023/05/16 02:07:36;;;;;;;7.60;4.10;;;;;;;17.22;44.10;100515.20;105176;1259;65177;-50
2023/05/16 02:10:03;;;;;;;9.10;3.80;;;;;;;17.18;44.23;100512.82;105032;1259;62720;-50
2023/05/16 02:12:31;;;;;;;6.30;3.60;;;;;;;17.15;44.25;100510.86;105233;1259;64681;-47
2023/05/16 02:14:58;;;;;;;6.90;3.60;;;;;;;17.12;44.14;100504.96;104816;1259;60567;-49
2023/05/16 02:17:25;;;;;;;7.80;3.80;;;;;;;17.10;43.98;100505.73;104901;1260;60639;-49
2023/05/16 02:19:52;;;;;;;7.30;3.80;;;;;;;17.07;44.02;100506.48;108699;1259;65962;-49
2023/05/16 02:22:19;;;;;;;6.30;3.30;;;;;;;17.08;44.07;100506.10;105606;1256;62794;-51
2023/05/16 02:24:46;;;;;;;7.70;4.30;;;;;;;17.09;44.08;100509.19;108024;1259;63938;-49
2023/05/16 02:27:13;;;;;;;6.60;3.90;;;;;;;17.09;44.03;100507.96;105693;1259;60483;-49
2023/05/16 02:29:39;;;;;;;8.10;3.70;;;;;;;17.09;44.02;100505.19;104682;1259;60391;-48
2023/05/16 02:32:07;;;;;;;9.00;4.60;;;;;;;17.09;43.80;100502.91;105094;1261;66342;-50
2023/05/16 02:34:33;;;;;;;7.40;4.00;;;;;;;17.10;43.93;100502.70;107527;1259;62722;-50
2023/05/16 02:37:01;;;;;;;7.60;4.20;;;;;;;17.11;43.76;100508.07;104890;1259;65052;-50
2023/05/16 02:39:28;;;;;;;6.90;4.20;;;;;;;17.13;43.73;100510.39;105232;1259;60326;-50
2023/05/16 02:41:56;;;;;;;8.70;4.10;;;;;;;17.14;43.63;100510.60;105418;1258;60594;-49
2023/05/16 02:44:22;;;;;;;8.50;3.60;;;;;;;17.16;43.60;100510.23;105458;1259;66190;-50
2023/05/16 02:46:49;;;;;;;5.80;3.90;;;;;;;17.17;43.51;100513.78;104663;1264;70554;-49
2023/05/16 02:49:16;;;;;;;7.00;3.70;;;;;;;17.18;43.61;100514.39;104766;1260;65094;-50
2023/05/16 02:51:44;;;;;;;6.30;3.60;;;;;;;17.18;43.56;100515.63;105505;1259;60480;-48
2023/05/16 02:54:11;;;;;;;6.60;3.60;;;;;;;17.19;43.51;100515.86;105481;1259;60565;-48
2023/05/16 02:56:38;;;;;;;7.60;3.80;;;;;;;17.21;43.55;100516.59;104701;1259;66409;-49
2023/05/16 02:59:05;;;;;;;6.60;3.90;;;;;;;17.25;43.55;100518.66;105788;1259;62353;-49
2023/05/16 03:01:32;;;;;;;6.20;3.40;;;;;;;17.28;43.36;100513.88;104799;1262;65060;-49
2023/05/16 03:03:59;;;;;;;7.00;3.80;;;;;;;17.31;42.97;100513.59;108745;1262;58422;-50
2023/05/16 03:06:26;;;;;;;7.70;3.80;;;;;;;17.34;42.62;100515.39;105317;1259;61273;-49
2023/05/16 03:08:53;;;;;;;6.80;3.40;;;;;;;17.37;42.43;100514.16;108668;1259;65769;-50
2023/05/16 03:11:21;;;;;;;5.20;3.00;;;;;;;17.40;42.18;100511.50;108836;1259;61651;-50
2023/05/16 03:13:48;;;;;;;6.90;3.10;;;;;;;17.45;42.01;100509.42;108125;1261;65037;-51
2023/05/16 03:16:15;;;;;;;7.80;3.70;;;;;;;17.50;42.00;100511.89;104701;1260;60551;-50
2023/05/16 03:19:10;;;;;;;6.20;3.30;;;;;;;17.54;41.81;100513.25;108849;1258;58084;-51
2023/05/16 03:21:46;;;;;;;6.60;3.70;;;;;;;17.59;41.61;100512.21;108387;1259;65275;-52
2023/05/16 03:24:13;;;;;;;6.10;2.90;;;;;;;17.63;41.41;100513.72;106356;1259;62347;-51
2023/05/16 03:26:43;;;;;;;8.20;3.70;;;;;;;17.68;41.29;100515.15;104749;1262;65212;-49
2023/05/16 03:29:10;;;;;;;7.10;3.80;;;;;;;17.71;41.04;100512.66;104929;1259;60518;-49
2023/05/16 03:31:38;;;;;;;6.40;3.50;;;;;;;17.73;40.94;100509.59;104921;1259;60554;-48
2023/05/16 03:34:05;;;;;;;8.40;3.80;;;;;;;17.74;40.86;100506.30;107892;1258;67144;-49
2023/05/16 03:36:32;;;;;;;5.50;3.40;;;;;;;17.76;40.83;100506.13;106948;1254;62594;-51
2023/05/16 03:39:18;;;;;;;6.90;3.40;;;;;;;17.78;40.72;100503.57;105032;1258;64987;-49
2023/05/16 03:41:45;;;;;;;7.10;3.50;;;;;;;17.79;40.68;100505.54;107177;1255;60569;-48
2023/05/16 03:44:11;;;;;;;6.40;2.70;;;;;;;17.80;40.63;100504.06;104873;1258;60760;-48
2023/05/16 03:46:38;;;;;;;7.70;3.10;;;;;;;17.81;40.41;100503.61;104953;1258;66085;-48
2023/05/16 03:49:05;;;;;;;6.80;3.40;;;;;;;17.82;40.23;100506.33;105240;1255;62617;-49
2023/05/16 03:51:32;;;;;;;5.60;3.10;;;;;;;17.83;40.07;100510.25;105120;1259;64667;-48
2023/05/16 03:53:59;;;;;;;6.00;3.50;;;;;;;17.85;39.96;100515.11;108800;1254;58472;-49
2023/05/16 03:56:26;;;;;;;6.70;3.30;;;;;;;17.88;40.05;100518.48;104960;1256;60418;-48
2023/05/16 03:58:53;;;;;;;7.30;3.30;;;;;;;17.91;40.13;100516.51;105104;1258;66009;-49
2023/05/16 04:01:20;;;;;;;8.80;3.40;;;;;;;17.89;40.14;100519.52;106514;1254;62449;-48
2023/05/16 04:03:46;;;;;;;6.30;3.20;;;;;;;17.89;40.15;100526.36;104915;1254;64056;-49
2023/05/16 04:06:13;;;;;;;6.20;3.70;;;;;;;18.02;39.95;100531.38;105021;1254;60569;-49
2023/05/16 04:08:43;;;;;;;6.00;3.00;;;;;;;18.14;39.67;100534.29;104991;1256;60468;-50
2023/05/16 04:11:11;;;;;;;5.70;3.20;;;;;;;18.05;39.91;100537.96;105034;1256;66306;-50
2023/05/16 04:13:40;;;;;;;6.70;3.50;;;;;;;17.94;40.11;100544.27;104916;1259;61525;-49
2023/05/16 04:16:07;;;;;;;6.30;3.70;;;;;;;17.89;39.88;100551.18;109117;1254;65010;-49
2023/05/16 04:18:34;;;;;;;7.40;3.40;;;;;;;17.89;40.04;100556.38;109068;1254;58137;-49
2023/05/16 04:21:01;;;;;;;6.30;3.80;;;;;;;17.90;40.05;100560.66;109071;1254;58179;-49
2023/05/16 04:23:27;;;;;;;5.60;3.00;;;;;;;17.92;40.15;100560.07;105571;1254;65932;-48
2023/05/16 04:25:55;;;;;;;5.10;3.00;;;;;;;17.94;39.67;100560.80;105539;1258;62404;-49
2023/05/16 04:28:22;;;;;;;5.90;3.00;;;;;;;17.95;39.49;100564.23;105700;1258;63898;-50
2023/05/16 04:30:49;;;;;;;6.00;3.00;;;;;;;17.95;39.37;100567.04;105014;1256;60579;-48
2023/05/16 04:33:17;;;;;;;7.20;3.50;;;;;;;17.95;39.16;100570.85;105872;1257;60476;-49
2023/05/16 04:35:44;;;;;;;5.20;2.80;;;;;;;17.95;39.08;100569.75;105895;1258;67839;-51
2023/05/16 04:38:11;;;;;;;5.20;2.60;;;;;;;17.96;38.93;100568.91;104957;1255;62638;-50
2023/05/16 04:40:40;;;;;;;6.60;3.40;;;;;;;17.97;38.73;100571.30;105148;1258;65234;-49
2023/05/16 04:43:07;;;;;;;10.00;3.50;;;;;;;17.98;38.36;100574.31;107661;1256;60468;-50
2023/05/16 04:45:35;;;;;;;5.70;2.80;;;;;;;17.99;38.26;100572.51;106965;1254;60564;-48
2023/05/16 04:48:04;;;;;;;7.00;3.20;;;;;;;18.00;37.92;100570.82;105068;1256;66006;-48
2023/05/16 04:50:32;;;;;;;6.00;3.00;;;;;;;18.00;37.86;100568.63;105784;1259;63121;-49
2023/05/16 04:52:59;;;;;;;10.10;3.60;;;;;;;18.02;37.90;100570.61;109010;1256;65036;-50
2023/05/16 04:55:25;;;;;;;7.40;3.20;;;;;;;18.03;37.97;100570.27;107401;1258;60480;-48
2023/05/16 04:57:53;;;;;;;10.30;4.10;;;;;;;18.06;37.76;100570.88;109011;1256;58500;-49
2023/05/16 05:00:20;;;;;;;5.70;2.90;;;;;;;18.08;37.61;100571.15;106037;1258;66223;-49
2023/05/16 05:02:47;;;;;;;6.50;3.50;;;;;;;18.10;37.52;100569.71;106105;1253;62619;-49
2023/05/16 05:05:17;;;;;;;7.00;2.80;;;;;;;18.11;37.46;100565.55;106033;1258;64953;-48
2023/05/16 05:07:45;;;;;;;7.50;3.30;;;;;;;18.10;37.50;100567.41;106129;1253;60576;-48
2023/05/16 05:10:12;;;;;;;6.90;3.00;;;;;;;18.10;37.56;100564.71;105335;1253;60432;-48
2023/05/16 05:12:39;;;;;;;6.50;3.50;;;;;;;18.11;37.62;100564.85;105526;1255;65955;-48
2023/05/16 05:15:07;;;;;;;9.00;3.60;;;;;;;18.11;37.64;100565.14;107855;1257;61786;-50
2023/05/16 05:17:34;;;;;;;6.00;2.90;;;;;;;18.13;37.40;100569.40;107223;1257;65012;-51
2023/05/16 05:20:05;;;;;;;6.80;3.40;;;;;;;18.14;37.43;100576.59;105663;1253;60426;-49
2023/05/16 05:22:32;;;;;;;5.80;3.20;;;;;;;18.16;37.45;100579.02;106554;1258;60540;-50
2023/05/16 05:24:59;;;;;;;6.20;3.00;;;;;;;18.16;37.49;100578.82;105904;1254;66637;-49
2023/05/16 05:27:26;;;;;;;9.90;3.30;;;;;;;18.16;37.62;100577.43;105950;1253;62641;-49
2023/05/16 05:30:02;;;;;;;8.80;3.10;;;;;;;18.17;37.77;100575.30;105095;1261;64146;-49
2023/05/16 05:32:31;;;;;;;6.70;3.50;;;;;;;18.19;38.34;100582.95;105387;1256;60469;-52
2023/05/16 05:34:59;;;;;;;6.00;2.90;;;;;;;18.21;38.03;100583.94;107378;1253;60448;-49
2023/05/16 05:37:26;;;;;;;6.60;3.40;;;;;;;18.23;37.78;100586.45;105777;1255;66391;-50
2023/05/16 05:40:18;;;;;;;7.00;3.00;;;;;;;18.24;37.61;100585.95;105291;1256;62709;-51
2023/05/16 05:43:01;;;;;;;7.70;3.90;;;;;;;18.24;37.49;100586.44;107295;1255;65083;-48
2023/05/16 05:45:29;;;;;;;6.90;3.70;;;;;;;18.25;37.46;100586.58;104992;1262;60554;-51
2023/05/16 05:47:56;;;;;;;5.90;3.40;;;;;;;18.24;36.88;100585.29;105776;1260;60458;-49
2023/05/16 05:50:23;;;;;;;6.90;3.70;;;;;;;18.22;36.93;100586.14;109067;1253;65994;-50
2023/05/16 05:52:50;;;;;;;5.80;4.00;;;;;;;18.22;37.33;100591.80;105553;1256;62342;-53
2023/05/16 05:55:17;;;;;;;9.00;3.70;;;;;;;18.23;37.72;100591.16;104958;1256;64900;-54
2023/05/16 05:57:44;;;;;;;7.00;3.40;;;;;;;18.24;38.13;100596.77;104899;1259;60565;-60
2023/05/16 06:00:11;;;;;;;5.50;3.30;;;;;;;18.24;38.53;100599.96;104927;1256;60683;-59
2023/05/16 06:02:39;;;;;;;7.60;3.90;;;;;;;18.23;38.89;100606.08;105187;1259;66198;-60
2023/05/16 06:05:06;;;;;;;7.10;3.10;;;;;;;18.20;39.15;100608.95;104935;1258;62778;-56
2023/05/16 06:07:34;;;;;;;6.10;3.50;;;;;;;18.17;39.99;100614.24;109054;1258;63938;-58
2023/05/16 06:10:04;;;;;;;7.20;3.60;;;;;;;18.13;40.02;100619.97;105290;1258;60438;-57
2023/05/16 06:12:32;;;;;;;14.60;3.90;;;;;;;18.10;40.37;100618.04;108752;1254;59369;-67
2023/05/16 06:15:02;;;;;;;5.80;3.40;;;;;;;18.07;41.16;100609.69;104906;1258;65992;-68
2023/05/16 06:17:38;;;;;;;6.70;3.70;;;;;;;18.05;41.79;100611.79;106309;1253;62861;-66
2023/05/16 06:20:06;;;;;;;7.20;3.90;;;;;;;18.05;42.29;100611.98;106426;1254;63710;-70
2023/05/16 06:22:33;;;;;;;6.20;3.40;;;;;;;18.05;43.24;100611.78;106417;1255;60278;-68
2023/05/16 06:25:00;;;;;;;7.90;3.50;;;;;;;18.05;44.00;100611.28;106426;1256;60445;-69
2023/05/16 06:27:37;;;;;;;6.70;3.80;;;;;;;18.02;44.16;100606.25;105600;1258;66197;-65
2023/05/16 06:30:08;;;;;;;7.40;3.80;;;;;;;18.00;44.51;100603.06;104753;1253;62503;-72
2023/05/16 06:32:36;;;;;;;7.20;3.70;;;;;;;17.99;44.72;100596.05;106995;1253;64873;-67
2023/05/16 06:35:03;;;;;;;7.30;3.50;;;;;;;17.98;44.85;100591.39;106299;1258;60464;-70
2023/05/16 06:37:30;;;;;;;8.00;3.60;;;;;;;17.96;44.67;100586.79;106460;1256;60610;-68
2023/05/16 06:40:04;;;;;;;8.60;3.70;;;;;;;17.97;44.66;100583.19;106189;1256;66050;-65
2023/05/16 06:43:12;;;;;;;6.10;3.90;;;;;;;17.97;44.48;100577.80;106266;1255;62549;-70
2023/05/16 06:45:49;;;;;;;6.00;3.60;;;;;;;17.97;44.38;100569.85;105954;1263;64030;-72
2023/05/16 06:48:21;;;;;;;5.50;3.30;;;;;;;17.97;44.55;100563.52;105592;1256;60495;-65
2023/05/16 06:50:50;;;;;;;7.80;3.50;;;;;;;17.96;44.46;100564.95;106242;1255;60499;-61
2023/05/16 06:53:17;;;;;;;6.40;4.00;;;;;;;18.00;44.17;100566.89;108405;1260;66016;-62
2023/05/16 06:55:44;;;;;;;5.70;3.20;;;;;;;18.04;44.32;100567.35;106203;1254;62946;-62
2023/05/16 06:58:14;;;;;;;7.20;3.60;;;;;;;18.07;44.46;100570.56;106226;1260;63790;-60
2023/05/16 07:00:41;;;;;;;8.60;3.60;;;;;;;18.13;44.37;100570.27;105312;1256;60595;-60
2023/05/16 07:03:08;;;;;;;7.20;3.30;;;;;;;18.21;43.91;100568.58;105289;1256;60456;-61
2023/05/16 07:05:35;;;;;;;8.00;3.40;;;;;;;18.25;43.55;100561.52;105871;1258;66376;-61
2023/05/16 07:08:02;;;;;;;7.20;3.50;;;;;;;18.29;43.36;100558.70;106250;1256;62838;-62
2023/05/16 07:10:35;;;;;;;9.10;3.90;;;;;;;18.34;43.10;100557.42;105611;1258;64882;-62
2023/05/16 07:13:03;;;;;;;7.50;3.70;;;;;;;18.39;42.90;100565.31;105333;1256;60491;-61
2023/05/16 07:15:30;;;;;;;6.80;3.60;;;;;;;18.44;43.02;100574.73;105822;1254;60644;-61
2023/05/16 07:17:57;;;;;;;7.70;4.10;;;;;;;18.49;43.18;100579.85;107286;1258;65751;-62
2023/05/16 07:20:35;;;;;;;6.40;3.60;;;;;;;18.54;42.85;100576.80;106582;1256;62585;-62
2023/05/16 07:23:01;;;;;;;6.60;3.50;;;;;;;18.57;42.55;100576.79;106265;1255;64836;-61
2023/05/16 07:25:28;;;;;;;6.30;3.10;;;;;;;18.61;41.76;100575.86;106282;1256;60483;-62
2023/05/16 07:27:56;;;;;;;5.60;3.00;;;;;;;18.65;41.36;100570.98;105477;1266;60500;-61
2023/05/16 07:30:23;;;;;;;7.70;3.20;;;;;;;18.70;41.59;100570.77;105962;1257;65178;-60
2023/05/16 07:32:50;;;;;;;9.00;3.50;;;;;;;18.76;41.90;100569.74;105383;1254;61716;-60
2023/05/16 07:35:17;;;;;;;6.90;3.30;;;;;;;18.82;42.26;100567.46;105327;1258;65100;-62
2023/05/16 07:37:45;;;;;;;8.40;3.20;;;;;;;18.88;42.44;100570.06;105143;1256;61034;-60
2023/05/16 07:40:12;;;;;;;7.80;3.20;;;;;;;18.93;42.67;100572.11;104828;1253;60335;-61
2023/05/16 07:42:39;;;;;;;8.10;3.50;;;;;;;18.99;42.80;100573.61;106121;1254;64956;-61
2023/05/16 07:45:07;;;;;;;6.40;4.00;;;;;;;19.02;42.82;100572.54;105899;1259;62617;-64
2023/05/16 07:47:34;;;;;;;7.00;3.80;;;;;;;19.04;43.18;100572.63;105341;1256;64047;-63
2023/05/16 07:50:01;;;;;;;7.60;4.30;;;;;;;19.04;43.27;100574.42;105288;1254;60478;-62
2023/05/16 07:52:28;;;;;;;7.40;4.40;;;;;;;19.03;43.43;100571.52;105209;1256;60410;-62
2023/05/16 07:54:56;;;;;;;8.60;4.30;;;;;;;19.02;43.56;100571.78;105210;1259;65955;-62
2023/05/16 07:57:29;;;;;;;7.70;4.20;;;;;;;19.01;43.83;100578.38;105883;1256;62708;-62
2023/05/16 07:59:59;;;;;;;7.30;4.00;;;;;;;19.00;43.94;100581.45;107199;1256;65556;-61
2023/05/16 08:02:29;;;;;;;7.90;3.90;;;;;;;18.98;44.09;100583.70;105437;1257;216438;-61
2023/05/16 08:17:18;;;;;;;7.20;4.10;;;;;;;18.98;43.97;100586.95;103070;1286;606678;-61
2023/05/16 08:19:45;;;;;;;7.60;4.20;;;;;;;19.27;44.13;100594.55;103094;1266;2881241;-64
2023/05/16 08:22:12;;;;;;;7.10;4.00;;;;;;;19.23;44.90;100599.21;106098;1267;59122;-62
2023/05/16 08:24:40;;;;;;;7.30;4.30;;;;;;;19.17;45.57;100599.18;105466;1260;64807;-61
2023/05/16 08:27:17;;;;;;;7.80;4.40;;;;;;;19.07;46.33;100592.59;106115;1262;70976;-61
2023/05/16 08:29:45;;;;;;;9.60;4.90;;;;;;;18.95;46.72;100584.90;105196;1259;64730;-61
2023/05/16 08:32:12;;;;;;;6.90;4.60;;;;;;;18.85;47.14;100587.54;105218;1257;59265;-61
2023/05/16 08:34:39;;;;;;;8.80;4.80;;;;;;;18.78;47.37;100588.14;108331;1258;58674;-61
2023/05/16 08:37:08;;;;;;;6.50;4.60;;;;;;;18.74;47.78;100597.84;105136;1257;64717;-61
2023/05/16 08:39:35;;;;;;;8.50;4.50;;;;;;;18.74;48.30;100601.20;105158;1260;62599;-61
2023/05/16 08:42:23;;;;;;;7.40;4.70;;;;;;;18.74;48.52;100598.55;105420;1264;64895;-61
2023/05/16 08:44:59;;;;;;;7.70;4.70;;;;;;;18.75;48.73;100603.47;104518;1272;59774;-62
2023/05/16 08:47:26;;;;;;;8.10;4.90;;;;;;;18.79;48.86;100600.73;105936;1257;59680;-61
2023/05/16 08:49:53;;;;;;;7.30;4.90;;;;;;;18.87;48.76;100602.85;105164;1262;65072;-63
2023/05/16 08:52:20;;;;;;;8.30;4.70;;;;;;;18.97;48.78;100600.36;104947;1262;61365;-60
2023/05/16 08:54:49;;;;;;;8.00;4.90;;;;;;;19.06;48.48;100593.19;105615;1259;65128;-60
2023/05/16 08:57:36;;;;;;;7.00;4.30;;;;;;;19.19;48.38;100594.98;106767;1259;59650;-60
2023/05/16 09:00:10;;;;;;;7.90;5.00;;;;;;;19.31;48.05;100591.31;104741;1257;60272;-60
2023/05/16 09:02:41;;;;;;;8.20;4.70;;;;;;;19.43;48.07;100592.98;107615;1261;65512;-61
2023/05/16 09:05:10;;;;;;;7.40;4.50;;;;;;;19.56;47.76;100594.30;107589;1258;62720;-60
2023/05/16 09:07:39;;;;;;;9.30;4.70;;;;;;;19.72;46.95;100594.34;105331;1259;64641;-62
2023/05/16 09:10:10;;;;;;;6.90;4.50;;;;;;;19.83;46.37;100586.84;106128;1260;59750;-59
2023/05/16 09:12:38;;;;;;;6.50;4.60;;;;;;;19.95;45.93;100581.70;105360;1259;59687;-59
2023/05/16 09:15:07;;;;;;;8.00;5.00;;;;;;;20.07;45.21;100583.38;105466;1262;65289;-63
2023/05/16 09:17:38;;;;;;;8.20;5.20;;;;;;;20.14;44.46;100584.81;107002;1262;62909;-62
2023/05/16 09:20:14;;;;;;;8.60;5.10;;;;;;;20.17;43.87;100584.42;105986;1264;63695;-61
2023/05/16 09:22:54;;;;;;;7.10;4.50;;;;;;;20.20;43.87;100587.32;106011;1260;59522;-62
2023/05/16 09:25:21;;;;;;;10.20;4.90;;;;;;;20.24;43.92;100587.77;106077;1259;59540;-62
2023/05/16 09:28:01;;;;;;;8.40;4.60;;;;;;;20.26;43.38;100588.58;105899;1259;65377;-62
2023/05/16 09:30:31;;;;;;;8.60;4.60;;;;;;;20.28;43.12;100592.27;106232;1259;62495;-63
2023/05/16 09:33:05;;;;;;;7.40;4.30;;;;;;;20.31;43.11;100596.05;105969;1262;66955;-61
2023/05/16 09:35:32;;;;;;;8.40;4.60;;;;;;;20.33;43.04;100594.12;106231;1262;59267;-62
2023/05/16 09:38:02;;;;;;;8.30;4.30;;;;;;;20.37;43.05;100594.08;105294;1265;59637;-61
2023/05/16 09:40:29;;;;;;;7.20;3.70;;;;;;;20.43;43.16;100593.35;106068;1258;64396;-61
2023/05/16 09:43:08;;;;;;;8.40;4.50;;;;;;;20.48;42.89;100589.86;105286;1260;62821;-59
2023/05/16 09:46:01;;;;;;;7.40;3.70;;;;;;;20.54;42.53;100587.36;107645;1260;64873;-63
2023/05/16 09:48:32;;;;;;;6.20;3.40;;;;;;;20.59;40.04;100587.64;104897;1266;59632;-60
2023/05/16 09:51:03;;;;;;;7.70;3.50;;;;;;;20.62;39.10;100589.30;106502;1256;59382;-60
2023/05/16 09:54:11;;;;;;;12.60;3.70;;;;;;;20.66;38.09;100590.52;105298;1258;65638;-61
2023/05/16 09:57:03;;;;;;;8.70;3.90;;;;;;;20.66;37.34;100591.18;105275;1257;62439;-61
2023/05/16 10:00:18;;;;;;;8.60;3.70;;;;;;;20.68;36.83;100596.60;106694;1261;64036;-60
2023/05/16 10:03:13;;;;;;;8.20;3.80;;;;;;;20.75;36.36;100599.30;105570;1259;59712;-62
2023/05/16 10:05:44;;;;;;;6.10;2.90;;;;;;;20.80;36.57;100594.09;104940;1257;59638;-62
2023/05/16 10:08:16;;;;;;;10.10;3.50;;;;;;;20.80;36.65;100594.13;105645;1263;65094;-61
2023/05/16 10:10:51;;;;;;;7.90;2.90;;;;;;;20.85;36.47;100593.49;106318;1257;62427;-62
2023/05/16 10:16:36;;;;;;;6.40;3.60;;;;;;;20.93;35.49;100596.24;106326;1263;59696;-62
2023/05/16 10:19:08;;;;;;;11.40;3.60;;;;;;;20.94;35.48;100593.79;104640;1260;59679;-64
2023/05/16 10:21:39;;;;;;;6.00;3.00;;;;;;;20.96;35.02;100592.54;104732;1260;64959;-61
2023/05/16 10:24:06;;;;;;;6.40;3.10;;;;;;;20.97;35.07;100593.70;105119;1260;62878;-64
2023/05/16 10:26:50;;;;;;;5.30;2.80;;;;;;;20.96;34.50;100591.07;105253;1257;64936;-63
2023/05/16 10:29:17;;;;;;;8.00;2.90;;;;;;;20.92;34.33;100590.34;106405;1266;59864;-64
2023/05/16 10:31:44;;;;;;;16.00;3.70;;;;;;;20.86;34.70;100591.82;104340;1260;59666;-66
2023/05/16 10:34:11;;;;;;;6.80;3.30;;;;;;;20.79;34.57;100586.55;106397;1260;65522;-64
2023/05/16 10:36:38;;;;;;;9.70;2.90;;;;;;;20.71;34.36;100585.57;105101;1262;62644;-65
2023/05/16 10:39:05;;;;;;;6.30;3.20;;;;;;;20.61;34.54;100591.59;105281;1260;64949;-63
2023/05/16 10:41:33;;;;;;;6.70;3.20;;;;;;;20.51;34.83;100588.80;105002;1260;59819;-62
2023/05/16 10:44:01;;;;;;;6.90;3.40;;;;;;;20.42;35.07;100586.73;105441;1260;59785;-61
2023/05/16 10:46:28;;;;;;;6.50;3.20;;;;;;;20.36;35.53;100587.88;108576;1259;65409;-59
2023/05/16 10:48:56;;;;;;;7.50;3.20;;;;;;;20.34;35.38;100588.83;108481;1260;62623;-62
2023/05/16 10:51:31;;;;;;;7.20;3.30;;;;;;;20.32;35.57;100586.41;105162;1259;64000;-62
2023/05/16 10:54:03;;;;;;;6.30;3.30;;;;;;;20.30;35.60;100590.08;108094;1259;58822;-67
2023/05/16 10:56:31;;;;;;;9.80;3.80;;;;;;;20.29;35.59;100595.36;105569;1256;60358;-64
2023/05/16 10:58:58;;;;;;;6.10;3.20;;;;;;;20.27;35.62;100594.14;105246;1259;65110;-63
2023/05/16 11:04:48;;;;;;;7.20;3.50;;;;;;;20.18;35.93;100579.84;105285;1251;63869;-61
2023/05/16 11:07:17;;;;;;;8.20;3.70;;;;;;;20.17;35.81;100579.28;107123;1254;59720;-65
2023/05/16 11:09:44;;;;;;;9.50;3.90;;;;;;;20.17;35.71;100578.52;106126;1251;59730;-62
2023/05/16 11:12:11;;;;;;;5.60;3.10;;;;;;;20.19;35.75;100578.66;105449;1256;65529;-61
2023/05/16 11:14:41;;;;;;;6.80;3.40;;;;;;;20.22;35.93;100575.83;109320;1253;62810;-63
2023/05/16 11:17:19;;;;;;;7.20;3.40;;;;;;;20.27;36.04;100572.77;106547;1253;63883;-62
2023/05/16 11:19:48;;;;;;;8.10;3.60;;;;;;;20.32;35.78;100573.66;107022;1254;59650;-63
2023/05/16 11:22:17;;;;;;;5.80;3.20;;;;;;;20.36;36.00;100572.30;107076;1253;59658;-61
2023/05/16 11:24:54;;;;;;;7.60;3.40;;;;;;;20.40;35.72;100571.58;107846;1252;65618;-63
2023/05/16 11:27:25;;;;;;;9.80;3.30;;;;;;;20.45;36.31;100572.66;105453;1256;62510;-61
2023/05/16 11:29:52;;;;;;;6.70;3.80;;;;;;;20.50;36.25;100574.35;106025;1253;64017;-64
2023/05/16 11:32:21;;;;;;;8.50;3.60;;;;;;;20.56;36.47;100571.52;106244;1254;59682;-62
2023/05/16 11:34:50;;;;;;;7.30;3.50;;;;;;;20.61;36.38;100565.89;107921;1253;59624;-62
2023/05/16 11:37:18;;;;;;;7.10;3.60;;;;;;;20.67;35.97;100563.59;108828;1253;65192;-63
2023/05/16 11:39:45;;;;;;;6.90;3.50;;;;;;;20.74;36.14;100563.11;108282;1256;62286;-64
2023/05/16 11:42:13;;;;;;;7.90;3.50;;;;;;;20.78;36.37;100561.36;106326;1253;65045;-62
2023/05/16 11:44:40;;;;;;;5.60;3.30;;;;;;;20.83;36.51;100563.98;109193;1252;59036;-64
2023/05/16 11:47:07;;;;;;;8.50;3.80;;;;;;;20.89;36.41;100559.86;106603;1255;59652;-63
2023/05/16 11:49:34;;;;;;;6.80;3.40;;;;;;;20.95;36.53;100558.82;105573;1253;65225;-63